In Rescue
 
Open Full Screen Window  High Contrast Mode
Wind Gusting 00 knots
13
September 22, 2020 1:00 AM EDT
Weather Information
Wind Direction
  200 °
Wind Speed
  13 kt (15 mph)
Wind Gust
  00 kt (0 mph)
Altimeter
30.12 in
Visibility
10 SM
Temperature
13° C
55° F
Dewpoint
10° C
50° F
Humidity
82%
1hr Rain Fall
00.00 in.
24hr Rain Fall
00.00 in.
Sky Condition
Scattered @ 12,000 ft
VFR

METAR KSAW 220500Z AUTO 20013KT 10SM SCT120 13/10 A3012 RMK AO2 LTG DSNT SW T01310103

FAA Disclaimer: The data displayed is for advisory purposes only and is not to be used for flight planning or operations.